createdAt,value
2023-10-17T00:00:13.973Z,95684.78
2023-10-17T00:02:42.344Z,95680.63
2023-10-17T00:05:11.604Z,95673.41
2023-10-17T00:07:44.840Z,95670.03
2023-10-17T00:10:16.223Z,95691.19
2023-10-17T00:12:46.098Z,95686.06
2023-10-17T00:15:29.108Z,95690.88
2023-10-17T00:18:03.902Z,95684.00
2023-10-17T00:20:39.524Z,95691.53
2023-10-17T00:23:08.320Z,95696.50
2023-10-17T00:25:39.217Z,95687.34
2023-10-17T00:28:06.786Z,95687.06
2023-10-17T00:30:34.525Z,95676.44
2023-10-17T00:33:01.948Z,95685.44
2023-10-17T00:35:37.987Z,95683.00
2023-10-17T00:38:08.497Z,95682.06
2023-10-17T00:40:57.489Z,95672.28
2023-10-17T00:43:25.675Z,95680.00
2023-10-17T00:45:52.872Z,95680.13
2023-10-17T00:48:27.549Z,95675.81
2023-10-17T00:51:11.630Z,95682.84
2023-10-17T00:53:42.805Z,95682.38
2023-10-17T00:56:10.282Z,95671.66
2023-10-17T00:58:38.501Z,95678.19
2023-10-17T01:01:16.375Z,95676.91
2023-10-17T01:03:44.894Z,95681.97
2023-10-17T01:06:31.598Z,95679.88
2023-10-17T01:08:59.863Z,95674.41
2023-10-17T01:11:31.017Z,95686.88
2023-10-17T01:13:58.818Z,95683.50
2023-10-17T01:16:26.849Z,95682.78
2023-10-17T01:18:57.207Z,95683.09
2023-10-17T01:21:24.815Z,95675.91
2023-10-17T01:23:52.606Z,95687.72
2023-10-17T01:26:25.076Z,95676.69
2023-10-17T01:28:54.672Z,95678.28
2023-10-17T01:31:26.541Z,95670.13
2023-10-17T01:33:56.580Z,95672.34
2023-10-17T01:36:25.375Z,95674.16
2023-10-17T01:38:53.508Z,95668.56
2023-10-17T01:41:21.948Z,95672.56
2023-10-17T01:43:50.534Z,95667.59
2023-10-17T01:46:24.688Z,95659.41
2023-10-17T01:48:55.899Z,95665.50
2023-10-17T01:51:25.275Z,95658.94
2023-10-17T01:53:53.312Z,95656.53
2023-10-17T01:56:30.341Z,95652.03
2023-10-17T01:59:01.140Z,95649.63
2023-10-17T02:01:31.533Z,95655.38
2023-10-17T02:04:05.441Z,95640.78
2023-10-17T02:06:36.688Z,95632.41
2023-10-17T02:09:22.612Z,95638.06
2023-10-17T02:11:53.250Z,95636.63
2023-10-17T02:14:35.823Z,95637.56
2023-10-17T02:17:02.948Z,95641.84
2023-10-17T02:19:33.285Z,95638.44
2023-10-17T02:22:02.044Z,95636.19
2023-10-17T02:24:33.482Z,95635.72
2023-10-17T02:27:09.797Z,95629.44
2023-10-17T02:29:47.560Z,95628.03
2023-10-17T02:32:14.860Z,95631.72
2023-10-17T02:34:44.758Z,95631.03
2023-10-17T02:37:12.816Z,95633.69
2023-10-17T02:39:40.153Z,95633.88
2023-10-17T02:42:10.010Z,95637.19
2023-10-17T02:44:45.089Z,95636.75
2023-10-17T02:47:13.709Z,95635.75
2023-10-17T02:49:41.694Z,95630.34
2023-10-17T02:52:08.974Z,95627.31
2023-10-17T02:54:56.500Z,95635.50
2023-10-17T02:57:24.862Z,95644.25
2023-10-17T02:59:58.893Z,95641.13
2023-10-17T03:02:38.332Z,95645.56
2023-10-17T03:05:12.691Z,95647.97
2023-10-17T03:07:40.560Z,95655.50
2023-10-17T03:10:09.229Z,95651.97
2023-10-17T03:12:51.192Z,95645.75
2023-10-17T03:15:19.723Z,95652.22
2023-10-17T03:17:54.770Z,95646.22
2023-10-17T03:20:23.728Z,95647.66
2023-10-17T03:22:51.662Z,95637.53
2023-10-17T03:25:20.179Z,95649.13
2023-10-17T03:27:50.950Z,95648.53
2023-10-17T03:30:22.129Z,95645.78
2023-10-17T03:33:16.100Z,95650.25
2023-10-17T03:35:57.426Z,95646.19
2023-10-17T03:38:27.976Z,95650.25
2023-10-17T03:40:55.887Z,95653.72
2023-10-17T03:43:23.465Z,95653.88
2023-10-17T03:45:57.787Z,95660.78
2023-10-17T03:48:29.988Z,95664.03
2023-10-17T03:51:09.051Z,95660.44
2023-10-17T03:53:48.295Z,95663.84
2023-10-17T03:56:40.080Z,95659.25
2023-10-17T03:59:25.897Z,95660.03
2023-10-17T04:01:56.725Z,95657.81
2023-10-17T04:04:47.691Z,95658.59
2023-10-17T04:07:15.074Z,95656.44
2023-10-17T04:09:54.329Z,95649.47
2023-10-17T04:12:23.902Z,95651.78
2023-10-17T04:15:01.104Z,95647.44
2023-10-17T04:17:31.189Z,95631.06
2023-10-17T04:20:12.306Z,95647.97
2023-10-17T04:22:40.733Z,95641.88
2023-10-17T04:25:21.134Z,95648.66
2023-10-17T04:28:01.226Z,95642.38
2023-10-17T04:30:31.441Z,95645.22
2023-10-17T04:33:10.225Z,95648.66
2023-10-17T04:35:38.024Z,95647.69
2023-10-17T04:38:20.701Z,95638.06
2023-10-17T04:41:27.044Z,95640.53
2023-10-17T04:43:57.215Z,95652.75
2023-10-17T04:46:27.427Z,95654.03
2023-10-17T04:48:58.490Z,95655.69
2023-10-17T04:51:32.943Z,95647.38
2023-10-17T04:54:11.363Z,95658.78
2023-10-17T04:56:57.076Z,95658.91
2023-10-17T04:59:44.561Z,95652.94
2023-10-17T05:02:18.191Z,95648.78
2023-10-17T05:04:56.148Z,95645.06
2023-10-17T05:07:54.173Z,95637.06
2023-10-17T05:10:21.518Z,95638.97
2023-10-17T05:13:12.581Z,95638.53
2023-10-17T05:16:00.522Z,95634.81
2023-10-17T05:18:47.876Z,95626.56
2023-10-17T05:21:33.727Z,95628.97
2023-10-17T05:24:19.680Z,95631.34
2023-10-17T05:27:05.346Z,95623.97
2023-10-17T05:30:04.994Z,95623.47
2023-10-17T05:32:50.785Z,95627.19
2023-10-17T05:35:36.530Z,95619.53
2023-10-17T05:38:22.678Z,95636.63
2023-10-17T05:41:08.877Z,95630.53
2023-10-17T05:43:54.742Z,95628.13
2023-10-17T05:46:42.663Z,95629.97
2023-10-17T05:49:28.620Z,95628.31
2023-10-17T05:52:14.514Z,95634.22
2023-10-17T05:57:48.669Z,95651.63
2023-10-17T06:00:34.450Z,95637.94
2023-10-17T06:03:20.385Z,95647.38
2023-10-17T06:06:08.121Z,95651.44
2023-10-17T06:08:56.047Z,95660.69
2023-10-17T06:11:41.718Z,95671.16
2023-10-17T06:14:27.308Z,95664.09
2023-10-17T06:16:54.587Z,95660.38
2023-10-17T06:19:25.859Z,95674.34
2023-10-17T06:22:02.695Z,95673.72
2023-10-17T06:24:46.151Z,95686.63
2023-10-17T06:27:55.946Z,95685.72
2023-10-17T06:30:30.106Z,95691.75
2023-10-17T06:33:32.684Z,95692.06
2023-10-17T06:35:59.824Z,95689.84
2023-10-17T06:38:31.084Z,95697.06
2023-10-17T06:41:13.728Z,95693.50
2023-10-17T06:43:41.962Z,95704.66
2023-10-17T06:46:15.350Z,95707.19
2023-10-17T06:48:55.770Z,95708.53
2023-10-17T06:51:23.037Z,95710.75
2023-10-17T06:53:52.723Z,95709.72
2023-10-17T06:56:19.940Z,95704.09
2023-10-17T06:58:50.594Z,95707.56
2023-10-17T07:01:25.647Z,95705.56
2023-10-17T07:03:57.003Z,95709.75
2023-10-17T07:06:27.460Z,95713.00
2023-10-17T07:08:55.002Z,95699.28
2023-10-17T07:11:22.266Z,95701.75
2023-10-17T07:14:07.570Z,95694.34
2023-10-17T07:16:43.286Z,95700.28
2023-10-17T07:19:31.853Z,95697.06
2023-10-17T07:22:02.309Z,95684.59
2023-10-17T07:24:37.401Z,95686.19
2023-10-17T07:27:42.757Z,95673.72
2023-10-17T07:30:14.538Z,95672.84
2023-10-17T07:32:47.775Z,95677.03
2023-10-17T07:35:25.753Z,95662.31
2023-10-17T07:37:56.588Z,95660.72
2023-10-17T07:40:35.105Z,95664.19
2023-10-17T07:43:02.615Z,95654.31
2023-10-17T07:45:39.950Z,95651.00
2023-10-17T07:48:21.785Z,95647.97
2023-10-17T07:50:54.895Z,95655.22
2023-10-17T07:53:22.285Z,95656.41
2023-10-17T07:55:54.119Z,95660.41
2023-10-17T07:58:40.111Z,95657.38
2023-10-17T08:01:15.864Z,95661.41
2023-10-17T08:03:58.580Z,95663.53
2023-10-17T08:06:31.337Z,95673.28
2023-10-17T08:09:00.530Z,95677.31
2023-10-17T08:11:28.609Z,95676.34
2023-10-17T08:13:58.502Z,95676.38
2023-10-17T08:16:26.284Z,95671.59
2023-10-17T08:19:12.979Z,95666.16
2023-10-17T08:21:59.189Z,95673.84
2023-10-17T08:24:49.829Z,95682.06
2023-10-17T08:27:23.071Z,95678.53
2023-10-17T08:29:58.946Z,95674.38
2023-10-17T08:32:29.619Z,95670.69
2023-10-17T08:35:11.009Z,95676.16
2023-10-17T08:37:44.742Z,95684.97
2023-10-17T08:40:33.321Z,95681.91
2023-10-17T08:43:02.042Z,95684.78
2023-10-17T08:45:37.304Z,95686.25
2023-10-17T08:48:07.428Z,95689.59
2023-10-17T08:50:41.204Z,95690.91
2023-10-17T08:53:19.431Z,95692.19
2023-10-17T08:55:49.796Z,95692.03
2023-10-17T08:58:18.635Z,95685.47
2023-10-17T09:00:46.207Z,95689.94
2023-10-17T09:03:21.924Z,95690.88
2023-10-17T09:05:59.634Z,95677.75
2023-10-17T09:08:48.728Z,95677.75
2023-10-17T09:11:16.217Z,95675.34
2023-10-17T09:13:46.342Z,95671.94
2023-10-17T09:16:16.784Z,95675.44
2023-10-17T09:18:55.353Z,95678.00
2023-10-17T09:21:22.467Z,95673.66
2023-10-17T09:23:49.769Z,95670.28
2023-10-17T09:26:23.948Z,95661.16
2023-10-17T09:29:01.683Z,95656.47
2023-10-17T09:31:29.231Z,95650.41
2023-10-17T09:34:06.009Z,95646.59
2023-10-17T09:36:35.650Z,95652.66
2023-10-17T09:39:06.025Z,95645.69
2023-10-17T09:41:33.871Z,95651.09
2023-10-17T09:44:01.071Z,95653.56
2023-10-17T09:46:28.764Z,95647.06
2023-10-17T09:49:01.686Z,95644.09
2023-10-17T09:51:34.904Z,95651.50
2023-10-17T09:54:05.781Z,95657.97
2023-10-17T09:56:38.222Z,95655.44
2023-10-17T09:59:13.277Z,95661.28
2023-10-17T10:01:43.787Z,95652.25
2023-10-17T10:04:11.822Z,95653.84
2023-10-17T10:06:40.536Z,95651.22
2023-10-17T10:09:14.992Z,95656.66
2023-10-17T10:11:52.134Z,95659.50
2023-10-17T10:14:28.731Z,95651.00
2023-10-17T10:17:07.035Z,95640.50
2023-10-17T10:19:43.926Z,95638.25
2023-10-17T10:22:16.284Z,95634.53
2023-10-17T10:24:51.162Z,95634.28
2023-10-17T10:27:28.247Z,95639.13
2023-10-17T10:30:19.250Z,95629.09
2023-10-17T10:32:47.697Z,95623.63
2023-10-17T10:35:18.817Z,95619.50
2023-10-17T10:37:54.929Z,95628.03
2023-10-17T10:40:24.130Z,95620.22
2023-10-17T10:42:53.687Z,95628.56
2023-10-17T10:45:52.668Z,95616.34
2023-10-17T10:48:23.036Z,95615.34
2023-10-17T10:50:53.509Z,95601.63
2023-10-17T10:53:34.211Z,95609.19
2023-10-17T10:56:04.091Z,95611.25
2023-10-17T10:58:42.835Z,95607.69
2023-10-17T11:01:13.903Z,95608.41
2023-10-17T11:03:48.097Z,95605.69
2023-10-17T11:06:26.012Z,95602.84
2023-10-17T11:08:55.660Z,95606.59
2023-10-17T11:11:24.089Z,95599.19
2023-10-17T11:13:53.189Z,95598.75
2023-10-17T11:16:26.263Z,95595.44
2023-10-17T11:18:54.855Z,95590.84
2023-10-17T11:21:24.444Z,95591.78
2023-10-17T11:23:57.557Z,95594.28
2023-10-17T11:26:29.246Z,95582.19
2023-10-17T11:28:58.937Z,95584.81
2023-10-17T11:31:27.348Z,95595.09
2023-10-17T11:34:00.621Z,95597.03
2023-10-17T11:36:36.966Z,95591.66
2023-10-17T11:39:09.996Z,95596.47
2023-10-17T11:41:48.898Z,95589.03
2023-10-17T11:44:17.444Z,95590.03
2023-10-17T11:46:56.996Z,95588.31
2023-10-17T11:49:35.313Z,95579.44
2023-10-17T11:52:11.745Z,95588.09
2023-10-17T11:55:05.610Z,95578.75
2023-10-17T11:57:33.114Z,95581.47
2023-10-17T12:00:21.680Z,95583.06
2023-10-17T12:02:50.102Z,95592.53
2023-10-17T12:05:20.273Z,95585.69
2023-10-17T12:07:51.039Z,95588.09
2023-10-17T12:10:18.713Z,95586.03
2023-10-17T12:12:46.059Z,95585.78
2023-10-17T12:15:14.973Z,95580.50
2023-10-17T12:17:42.857Z,95582.34
2023-10-17T12:20:12.275Z,95575.16
2023-10-17T12:22:40.961Z,95582.81
2023-10-17T12:28:20.608Z,95565.78
2023-10-17T12:30:48.021Z,95581.19
2023-10-17T12:33:19.307Z,95581.19
2023-10-17T12:35:47.491Z,95578.88
2023-10-17T12:38:38.413Z,95577.94
2023-10-17T12:41:08.153Z,95568.63
2023-10-17T12:43:36.726Z,95573.09
2023-10-17T12:46:04.217Z,95566.19
2023-10-17T12:48:31.568Z,95563.06
2023-10-17T12:50:59.037Z,95565.94
2023-10-17T12:53:26.436Z,95563.88
2023-10-17T12:55:56.569Z,95566.50
2023-10-17T12:58:24.103Z,95573.03
2023-10-17T13:00:51.515Z,95569.03
2023-10-17T13:03:22.678Z,95565.06
2023-10-17T13:05:51.616Z,95562.16
2023-10-17T13:08:23.036Z,95566.59
2023-10-17T13:10:51.600Z,95566.59
2023-10-17T13:13:19.127Z,95578.47
2023-10-17T13:15:46.587Z,95575.28
2023-10-17T13:18:16.183Z,95571.06
2023-10-17T13:20:58.921Z,95573.16
2023-10-17T13:23:38.638Z,95568.00
2023-10-17T13:26:16.454Z,95566.13
2023-10-17T13:28:58.729Z,95563.41
2023-10-17T13:31:26.233Z,95564.31
2023-10-17T13:33:56.854Z,95558.16
2023-10-17T13:36:25.318Z,95552.72
2023-10-17T13:38:52.947Z,95565.06
2023-10-17T13:41:21.365Z,95553.19
2023-10-17T13:43:49.267Z,95554.91
2023-10-17T13:46:20.072Z,95560.69
2023-10-17T13:48:52.954Z,95560.94
2023-10-17T13:51:20.656Z,95553.88
2023-10-17T13:53:49.438Z,95558.91
2023-10-17T13:56:22.085Z,95562.75
2023-10-17T13:58:50.384Z,95566.63
2023-10-17T14:01:32.853Z,95560.91
2023-10-17T14:04:03.841Z,95566.19
2023-10-17T14:06:40.745Z,95564.22
2023-10-17T14:09:16.310Z,95541.75
2023-10-17T14:11:47.987Z,95549.03
2023-10-17T14:14:16.556Z,95554.09
2023-10-17T14:16:44.886Z,95545.84
2023-10-17T14:19:31.520Z,95536.72
2023-10-17T14:22:13.948Z,95526.72
2023-10-17T14:24:54.330Z,95512.47
2023-10-17T14:27:26.560Z,95522.13
2023-10-17T14:29:54.436Z,95526.00
2023-10-17T14:32:23.269Z,95526.22
2023-10-17T14:34:50.927Z,95504.50
2023-10-17T14:37:21.557Z,95508.19
2023-10-17T14:39:49.429Z,95523.72
2023-10-17T14:42:18.695Z,95517.25
2023-10-17T14:44:53.364Z,95520.91
2023-10-17T14:47:21.663Z,95516.66
2023-10-17T14:49:52.281Z,95520.19
2023-10-17T14:52:22.940Z,95530.59
2023-10-17T14:54:51.680Z,95531.28
2023-10-17T14:57:20.290Z,95522.28
2023-10-17T14:59:47.837Z,95520.31
2023-10-17T15:02:16.710Z,95514.94
2023-10-17T15:04:44.295Z,95525.78
2023-10-17T15:07:13.289Z,95533.88
2023-10-17T15:09:40.856Z,95533.88
2023-10-17T15:12:10.340Z,95534.00
2023-10-17T15:14:37.708Z,95519.72
2023-10-17T15:17:06.232Z,95500.19
2023-10-17T15:19:34.264Z,95490.53
2023-10-17T15:22:01.972Z,95484.25
2023-10-17T15:24:30.186Z,95483.56
2023-10-17T15:26:59.735Z,95487.69
2023-10-17T15:29:28.749Z,95491.31
2023-10-17T15:31:56.743Z,95488.53
2023-10-17T15:34:24.346Z,95496.69
2023-10-17T15:36:53.053Z,95490.97
2023-10-17T15:39:27.008Z,95500.00
2023-10-17T15:41:54.850Z,95490.84
2023-10-17T15:44:22.857Z,95489.16
2023-10-17T15:46:50.368Z,95480.47
2023-10-17T15:49:18.079Z,95494.53
2023-10-17T15:51:45.580Z,95487.69
2023-10-17T15:54:12.912Z,95480.28
2023-10-17T15:56:40.117Z,95473.09
2023-10-17T15:59:09.358Z,95482.94
2023-10-17T16:01:36.674Z,95477.81
2023-10-17T16:04:04.250Z,95460.69
2023-10-17T16:06:31.995Z,95458.44
2023-10-17T16:08:59.273Z,95471.22
2023-10-17T16:11:26.731Z,95478.19
2023-10-17T16:13:54.398Z,95481.34
2023-10-17T16:16:21.770Z,95470.53
2023-10-17T16:18:49.513Z,95469.03
2023-10-17T16:21:20.627Z,95463.00
2023-10-17T16:23:51.582Z,95469.06
2023-10-17T16:26:21.447Z,95478.41
2023-10-17T16:28:49.071Z,95471.34
2023-10-17T16:31:17.213Z,95476.13
2023-10-17T16:33:44.956Z,95480.00
2023-10-17T16:36:12.239Z,95475.56
2023-10-17T16:38:40.265Z,95476.13
2023-10-17T16:41:10.316Z,95487.06
2023-10-17T16:43:37.771Z,95495.53
2023-10-17T16:46:05.929Z,95505.53
2023-10-17T16:48:33.375Z,95504.41
2023-10-17T16:51:00.678Z,95513.31
2023-10-17T16:53:29.809Z,95511.25
2023-10-17T16:55:58.440Z,95523.78
2023-10-17T16:58:27.431Z,95518.78
2023-10-17T17:00:54.970Z,95525.63
2023-10-17T17:03:28.308Z,95522.31
2023-10-17T17:05:56.454Z,95530.06
2023-10-17T17:08:25.875Z,95524.03
2023-10-17T17:10:53.106Z,95517.63
2023-10-17T17:13:21.530Z,95525.72
2023-10-17T17:15:49.113Z,95519.34
2023-10-17T17:20:47.669Z,95525.25
2023-10-17T17:23:14.864Z,95520.72
2023-10-17T17:25:42.879Z,95526.75
2023-10-17T17:28:11.186Z,95522.66
2023-10-17T17:30:41.903Z,95515.56
2023-10-17T17:33:10.787Z,95519.09
2023-10-17T17:35:38.297Z,95512.38
2023-10-17T17:38:05.693Z,95510.78
2023-10-17T17:40:33.149Z,95504.97
2023-10-17T17:43:00.699Z,95503.03
2023-10-17T17:45:28.045Z,95497.66
2023-10-17T17:47:55.349Z,95496.59
2023-10-17T17:50:22.667Z,95496.59
2023-10-17T17:52:49.936Z,95500.75
2023-10-17T17:55:17.896Z,95500.94
2023-10-17T17:57:45.229Z,95499.00
2023-10-17T18:00:16.339Z,95501.16
2023-10-17T18:02:45.442Z,95499.28
2023-10-17T18:05:13.177Z,95497.03
2023-10-17T18:07:40.624Z,95500.19
2023-10-17T18:10:08.664Z,95497.00
2023-10-17T18:12:36.414Z,95500.16
2023-10-17T18:15:07.875Z,95498.38
2023-10-17T18:17:36.110Z,95503.56
2023-10-17T18:20:06.125Z,95494.66
2023-10-17T18:22:33.330Z,95492.72
2023-10-17T18:25:12.062Z,95493.53
2023-10-17T18:28:06.007Z,95486.47
2023-10-17T18:30:33.569Z,95491.81
2023-10-17T18:33:01.029Z,95486.72
2023-10-17T18:35:29.624Z,95486.25
2023-10-17T18:37:57.147Z,95490.59
2023-10-17T18:40:25.663Z,95482.84
2023-10-17T18:42:54.727Z,95490.94
2023-10-17T18:45:22.072Z,95486.25
2023-10-17T18:47:49.423Z,95492.88
2023-10-17T18:50:16.777Z,95487.63
2023-10-17T18:52:43.958Z,95486.59
2023-10-17T18:55:11.226Z,95479.97
2023-10-17T18:57:42.979Z,95483.03
2023-10-17T19:00:20.286Z,95477.28
2023-10-17T19:02:50.441Z,95491.44
2023-10-17T19:05:20.925Z,95492.78
2023-10-17T19:07:49.027Z,95491.47
2023-10-17T19:10:18.651Z,95494.34
2023-10-17T19:12:52.928Z,95487.97
2023-10-17T19:15:22.355Z,95494.34
2023-10-17T19:17:53.274Z,95489.31
2023-10-17T19:20:21.578Z,95488.16
2023-10-17T19:22:49.433Z,95485.97
2023-10-17T19:25:17.655Z,95488.53
2023-10-17T19:27:45.968Z,95489.53
2023-10-17T19:30:14.461Z,95493.25
2023-10-17T19:32:43.130Z,95488.69
2023-10-17T19:35:12.457Z,95489.59
2023-10-17T19:37:39.694Z,95495.78
2023-10-17T19:40:11.270Z,95494.22
2023-10-17T19:42:42.068Z,95501.59
2023-10-17T19:45:10.076Z,95495.06
2023-10-17T19:47:37.481Z,95497.31
2023-10-17T19:50:05.597Z,95489.47
2023-10-17T19:52:35.269Z,95490.75
2023-10-17T19:55:08.833Z,95483.22
2023-10-17T19:57:36.220Z,95484.13
2023-10-17T20:00:06.464Z,95485.81
2023-10-17T20:02:36.896Z,95480.41
2023-10-17T20:05:07.792Z,95479.69
2023-10-17T20:07:37.786Z,95477.09
2023-10-17T20:10:10.221Z,95476.16
2023-10-17T20:12:38.809Z,95477.13
2023-10-17T20:15:09.243Z,95480.81
2023-10-17T20:17:36.868Z,95476.47
2023-10-17T20:20:06.294Z,95472.22
2023-10-17T20:22:36.585Z,95468.59
2023-10-17T20:27:48.183Z,95457.22
2023-10-17T20:30:29.135Z,95465.22
2023-10-17T20:33:07.086Z,95454.81
2023-10-17T20:35:43.443Z,95440.59
2023-10-17T20:38:13.929Z,95455.06
2023-10-17T20:41:08.820Z,95456.53
2023-10-17T20:43:37.073Z,95448.34
2023-10-17T20:46:06.290Z,95452.41
2023-10-17T20:48:37.110Z,95450.75
2023-10-17T20:51:06.793Z,95454.13
2023-10-17T20:53:34.951Z,95446.75
2023-10-17T20:56:03.018Z,95448.78
2023-10-17T20:58:34.233Z,95449.13
2023-10-17T21:01:05.297Z,95436.34
2023-10-17T21:03:39.260Z,95436.16
2023-10-17T21:06:09.906Z,95445.09
2023-10-17T21:08:37.250Z,95430.25
2023-10-17T21:11:04.504Z,95428.63
2023-10-17T21:13:33.003Z,95432.41
2023-10-17T21:16:06.954Z,95425.72
2023-10-17T21:18:35.822Z,95422.69
2023-10-17T21:21:05.260Z,95418.38
2023-10-17T21:23:32.853Z,95433.22
2023-10-17T21:26:04.939Z,95420.41
2023-10-17T21:28:32.522Z,95415.41
2023-10-17T21:31:04.062Z,95413.50
2023-10-17T21:33:36.479Z,95406.56
2023-10-17T21:36:05.753Z,95410.50
2023-10-17T21:38:32.958Z,95406.03
2023-10-17T21:41:01.912Z,95410.38
2023-10-17T21:43:40.078Z,95398.25
2023-10-17T21:46:12.753Z,95393.66
2023-10-17T21:48:47.018Z,95390.16
2023-10-17T21:51:23.289Z,95388.63
2023-10-17T21:53:52.680Z,95381.84
2023-10-17T21:56:20.735Z,95388.59
2023-10-17T21:58:51.253Z,95391.84
2023-10-17T22:01:22.246Z,95384.81
2023-10-17T22:03:59.455Z,95385.94
2023-10-17T22:06:26.909Z,95384.00
2023-10-17T22:09:01.320Z,95381.53
2023-10-17T22:11:30.792Z,95370.81
2023-10-17T22:14:01.505Z,95374.19
2023-10-17T22:16:40.385Z,95366.56
2023-10-17T22:19:09.292Z,95369.13
2023-10-17T22:21:39.113Z,95367.53
2023-10-17T22:24:07.122Z,95369.13
2023-10-17T22:26:34.278Z,95366.03
2023-10-17T22:29:01.570Z,95366.88
2023-10-17T22:31:30.659Z,95370.66
2023-10-17T22:33:58.317Z,95371.19
2023-10-17T22:36:26.134Z,95363.41
2023-10-17T22:38:54.470Z,95356.53
2023-10-17T22:41:22.743Z,95359.25
2023-10-17T22:43:49.972Z,95369.34
2023-10-17T22:46:17.255Z,95358.50
2023-10-17T22:48:45.429Z,95363.16
2023-10-17T22:51:12.765Z,95355.50
2023-10-17T22:53:42.910Z,95366.50
2023-10-17T22:56:12.971Z,95362.84
2023-10-17T22:58:41.269Z,95347.41
2023-10-17T23:01:09.726Z,95351.53
2023-10-17T23:03:37.718Z,95345.19
2023-10-17T23:06:06.930Z,95339.84
2023-10-17T23:08:34.098Z,95341.72
2023-10-17T23:11:03.438Z,95338.97
2023-10-17T23:13:30.794Z,95341.47
2023-10-17T23:16:02.910Z,95341.50
2023-10-17T23:18:30.323Z,95323.66
2023-10-17T23:20:57.780Z,95333.97
2023-10-17T23:23:24.946Z,95336.31
2023-10-17T23:25:52.244Z,95329.69
2023-10-17T23:28:19.596Z,95329.84
2023-10-17T23:30:48.500Z,95335.56
2023-10-17T23:33:15.874Z,95334.78
2023-10-17T23:35:43.897Z,95330.91
2023-10-17T23:38:11.113Z,95327.22
2023-10-17T23:40:38.552Z,95330.59
2023-10-17T23:43:07.008Z,95327.78
2023-10-17T23:45:34.355Z,95315.38
2023-10-17T23:48:09.286Z,95322.47
2023-10-17T23:50:39.212Z,95325.97
2023-10-17T23:53:08.678Z,95318.00
2023-10-17T23:55:36.187Z,95317.34
2023-10-17T23:58:03.648Z,95317.03
